Time;durP1;ratioP1;P1;durP2;ratioP2;P2;SDS_P1;SDS_P2;PMS_P1;PMS_P2;Temp;Humidity;BMP_temperature;BMP_pressure;BME280_temperature;BME280_humidity;BME280_pressure;Samples;Min_cycle;Max_cycle;Signal;HPM_P1;HPM_P2
2022/01/15 00:03:02;;;;;;;27.57;8.87;;;1.10;99.90;;;;;;8461099;28;20184;-65
2022/01/15 00:07:03;;;;;;;24.67;9.43;;;1.10;99.90;;;;;;8460235;28;20175;-66
2022/01/15 00:11:04;;;;;;;26.00;10.37;;;1.20;99.90;;;;;;8482194;28;20251;-65
2022/01/15 00:15:13;;;;;;;20.70;9.20;;;1.20;99.90;;;;;;8487359;28;20179;-66
2022/01/15 00:19:16;;;;;;;19.20;8.10;;;1.30;99.90;;;;;;8478404;27;20211;-66
2022/01/15 00:23:17;;;;;;;22.47;9.40;;;1.10;99.90;;;;;;8460804;27;20194;-66
2022/01/15 00:27:18;;;;;;;22.23;9.47;;;1.10;99.90;;;;;;8487484;27;20211;-65
2022/01/15 00:31:19;;;;;;;27.83;9.77;;;1.10;99.90;;;;;;8478882;27;20194;-64
2022/01/15 00:35:21;;;;;;;26.50;9.03;;;1.10;99.90;;;;;;8475042;28;20209;-66
2022/01/15 00:39:23;;;;;;;22.17;8.87;;;1.00;99.90;;;;;;8480650;27;20213;-65
2022/01/15 00:43:23;;;;;;;16.83;8.10;;;1.00;99.90;;;;;;8469655;27;20302;-65
2022/01/15 00:47:28;;;;;;;18.27;7.20;;;0.90;99.90;;;;;;8477268;27;20187;-65
2022/01/15 00:51:29;;;;;;;17.17;7.40;;;0.80;99.90;;;;;;8472400;27;20183;-66
2022/01/15 00:55:30;;;;;;;21.23;7.80;;;0.70;99.90;;;;;;8472415;27;20194;-65
2022/01/15 00:59:30;;;;;;;16.97;7.77;;;0.50;99.90;;;;;;8465403;27;20306;-66
2022/01/15 01:03:31;;;;;;;15.03;6.83;;;0.40;99.90;;;;;;8475910;27;20183;-67
2022/01/15 01:07:35;;;;;;;17.20;7.27;;;0.30;99.90;;;;;;8487624;27;20203;-65
2022/01/15 01:11:52;;;;;;;17.47;7.07;;;0.20;99.90;;;;;;8489975;27;20184;-65
2022/01/15 01:20:19;;;;;;;19.87;8.03;;;0.40;99.90;;;;;;8492394;27;20311;-66
2022/01/15 01:24:21;;;;;;;18.70;7.53;;;0.50;99.90;;;;;;8470242;27;20417;-65
2022/01/15 01:28:31;;;;;;;27.43;9.70;;;0.60;99.90;;;;;;8476878;27;20175;-65
2022/01/15 01:32:50;;;;;;;28.27;10.13;;;0.80;99.90;;;;;;8481941;27;20478;-66
2022/01/15 01:41:16;;;;;;;30.60;9.87;;;0.90;99.90;;;;;;8472032;27;20218;-65
2022/01/15 01:45:17;;;;;;;26.23;9.30;;;0.90;99.90;;;;;;8480848;27;20182;-66
2022/01/15 01:49:19;;;;;;;18.53;8.23;;;0.90;99.90;;;;;;8480333;27;20195;-66
2022/01/15 01:53:19;;;;;;;17.93;7.17;;;0.70;99.90;;;;;;8486433;27;20267;-66
2022/01/15 01:57:20;;;;;;;22.90;8.50;;;0.50;99.90;;;;;;8469594;27;20198;-66
2022/01/15 02:01:21;;;;;;;18.17;7.47;;;0.40;99.90;;;;;;8467752;27;20319;-66
2022/01/15 02:05:23;;;;;;;20.73;6.93;;;0.40;99.90;;;;;;8479230;27;20175;-68
2022/01/15 02:09:25;;;;;;;22.97;7.30;;;0.30;99.90;;;;;;8464622;27;20239;-66
2022/01/15 02:13:29;;;;;;;21.37;6.93;;;0.40;99.90;;;;;;8468896;27;20540;-65
2022/01/15 02:17:30;;;;;;;18.10;7.43;;;0.40;99.90;;;;;;8456318;28;20199;-65
2022/01/15 02:25:53;;;;;;;19.77;6.73;;;0.30;99.90;;;;;;8468290;27;20215;-66
2022/01/15 02:29:54;;;;;;;21.57;8.10;;;0.30;99.90;;;;;;8483488;27;20274;-66
2022/01/15 02:33:57;;;;;;;25.37;7.70;;;0.40;99.90;;;;;;8474465;27;20187;-65
2022/01/15 02:38:03;;;;;;;27.87;8.63;;;0.50;99.90;;;;;;8482781;27;20270;-66
2022/01/15 02:42:04;;;;;;;17.70;7.10;;;0.50;99.90;;;;;;8478201;27;20200;-66
2022/01/15 02:50:21;;;;;;;17.77;6.70;;;0.30;99.90;;;;;;8471760;27;20180;-67
2022/01/15 02:54:22;;;;;;;18.90;7.10;;;0.10;99.90;;;;;;8485338;27;20186;-67
2022/01/15 02:58:24;;;;;;;19.87;6.77;;;0.00;99.90;;;;;;8473148;27;20191;-65
2022/01/15 03:02:31;;;;;;;15.77;6.40;;;0.00;99.90;;;;;;8477135;27;20195;-65
2022/01/15 03:06:32;;;;;;;24.37;7.73;;;-0.10;99.90;;;;;;8474942;27;20175;-66
2022/01/15 03:10:33;;;;;;;17.10;6.23;;;-0.10;99.90;;;;;;8473057;27;20175;-65
2022/01/15 03:14:34;;;;;;;26.30;7.70;;;-0.10;99.90;;;;;;8486334;27;20261;-66
2022/01/15 03:18:34;;;;;;;20.17;6.70;;;0.00;99.90;;;;;;8479753;27;20227;-64
2022/01/15 03:22:35;;;;;;;23.93;7.47;;;0.00;99.90;;;;;;8476493;27;20221;-65
2022/01/15 03:26:36;;;;;;;24.63;6.37;;;0.10;99.90;;;;;;8480683;27;20266;-67
2022/01/15 03:30:38;;;;;;;22.37;7.00;;;0.00;99.90;;;;;;8471732;27;20225;-66
2022/01/15 03:34:39;;;;;;;12.53;5.07;;;-0.10;99.90;;;;;;8456881;27;20189;-67
2022/01/15 03:38:40;;;;;;;20.30;5.30;;;-0.10;99.90;;;;;;8487244;27;20183;-66
2022/01/15 03:42:41;;;;;;;19.67;5.67;;;-0.20;99.90;;;;;;8466733;27;20508;-67
2022/01/15 03:46:42;;;;;;;13.23;5.00;;;-0.20;99.90;;;;;;8478384;28;20223;-67
2022/01/15 03:50:43;;;;;;;10.87;4.40;;;-0.30;99.90;;;;;;8467564;28;20184;-67
2022/01/15 03:54:44;;;;;;;11.90;4.53;;;-0.40;99.90;;;;;;8484049;28;20267;-67
2022/01/15 03:58:44;;;;;;;11.47;4.17;;;-0.60;99.90;;;;;;8467074;28;20206;-65
2022/01/15 04:02:47;;;;;;;12.40;4.57;;;-0.60;99.90;;;;;;8479044;27;20203;-67
2022/01/15 04:06:48;;;;;;;13.97;4.80;;;-0.70;99.90;;;;;;8462379;28;20219;-66
2022/01/15 04:10:48;;;;;;;12.27;5.37;;;-0.80;99.90;;;;;;8467648;28;20186;-66
2022/01/15 04:14:49;;;;;;;18.63;4.80;;;-0.70;99.90;;;;;;8463647;28;20184;-67
2022/01/15 04:18:50;;;;;;;11.23;4.77;;;-0.70;99.90;;;;;;8469034;28;20199;-66
2022/01/15 04:22:54;;;;;;;12.57;5.57;;;-0.70;99.90;;;;;;8479136;27;20217;-67
2022/01/15 04:26:55;;;;;;;19.67;5.97;;;-0.70;99.90;;;;;;8492031;27;20211;-66
2022/01/15 04:30:56;;;;;;;16.83;7.00;;;-0.50;99.90;;;;;;8488669;27;20191;-67
2022/01/15 04:34:57;;;;;;;18.03;6.97;;;-0.40;99.90;;;;;;8477364;27;20179;-67
2022/01/15 04:38:58;;;;;;;26.37;7.47;;;-0.30;99.90;;;;;;8476021;27;20183;-66
2022/01/15 04:42:58;;;;;;;19.40;6.43;;;-0.20;99.90;;;;;;8490000;27;20203;-66
2022/01/15 04:46:59;;;;;;;17.90;6.37;;;-0.10;99.90;;;;;;8490789;27;20194;-67
2022/01/15 04:51:00;;;;;;;18.63;6.07;;;-0.10;99.90;;;;;;8481113;27;20192;-67
2022/01/15 04:55:02;;;;;;;15.37;5.53;;;0.00;99.90;;;;;;8473160;27;20193;-67
2022/01/15 04:59:02;;;;;;;20.67;6.83;;;0.00;99.90;;;;;;8465296;27;20218;-66
2022/01/15 05:03:04;;;;;;;13.33;5.73;;;0.00;99.90;;;;;;8472387;27;20210;-67
2022/01/15 05:07:05;;;;;;;15.73;5.33;;;0.10;99.90;;;;;;8476097;27;20218;-67
2022/01/15 05:11:13;;;;;;;17.03;6.67;;;0.10;99.90;;;;;;8474477;27;20214;-68
2022/01/15 05:15:17;;;;;;;16.67;6.50;;;0.20;99.90;;;;;;8457987;28;20283;-67
2022/01/15 05:19:18;;;;;;;15.20;6.63;;;0.30;99.90;;;;;;8466595;27;20257;-66
2022/01/15 05:23:18;;;;;;;23.67;7.23;;;0.30;99.90;;;;;;8465610;27;20184;-67
2022/01/15 05:27:19;;;;;;;24.10;7.00;;;0.40;99.90;;;;;;8456741;28;20184;-68
2022/01/15 05:31:20;;;;;;;19.13;7.70;;;0.50;99.90;;;;;;8475903;27;20191;-67
2022/01/15 05:35:25;;;;;;;26.77;7.33;;;0.60;99.90;;;;;;8461207;27;20196;-69
2022/01/15 05:39:26;;;;;;;20.90;7.20;;;0.60;99.90;;;;;;8478666;27;20207;-68
2022/01/15 05:43:27;;;;;;;27.03;8.03;;;0.70;99.90;;;;;;8470772;27;20262;-68
2022/01/15 05:47:28;;;;;;;25.90;8.13;;;0.70;99.90;;;;;;8475422;27;20187;-67
2022/01/15 05:51:31;;;;;;;27.00;8.40;;;0.70;99.90;;;;;;8470411;27;20218;-68
2022/01/15 05:55:31;;;;;;;28.33;7.80;;;0.70;99.90;;;;;;8488583;27;20205;-68
2022/01/15 05:59:32;;;;;;;22.87;6.83;;;0.70;99.90;;;;;;8486726;27;20220;-68
2022/01/15 06:03:33;;;;;;;22.00;7.23;;;0.70;99.90;;;;;;8486809;27;20232;-68
2022/01/15 06:07:34;;;;;;;20.67;7.53;;;0.60;99.90;;;;;;8467909;27;20183;-68
2022/01/15 06:11:35;;;;;;;19.13;7.17;;;0.50;99.90;;;;;;8465021;27;20212;-68
2022/01/15 06:15:36;;;;;;;24.33;7.20;;;0.40;99.90;;;;;;8459665;27;20192;-68
2022/01/15 06:19:37;;;;;;;19.97;6.93;;;0.30;99.90;;;;;;8473455;27;20271;-68
2022/01/15 06:23:38;;;;;;;16.10;6.53;;;0.20;99.90;;;;;;8458157;27;20176;-67
2022/01/15 06:27:39;;;;;;;27.97;7.73;;;0.20;99.90;;;;;;8454300;28;20209;-67
2022/01/15 06:31:39;;;;;;;17.50;6.37;;;0.20;99.90;;;;;;8480111;27;20186;-68
2022/01/15 06:35:41;;;;;;;21.87;7.10;;;0.20;99.90;;;;;;8472044;27;20185;-67
2022/01/15 06:39:42;;;;;;;29.23;7.93;;;0.20;99.90;;;;;;8473036;27;20394;-68
2022/01/15 06:43:42;;;;;;;34.53;8.57;;;0.20;99.90;;;;;;8480238;27;20171;-66
2022/01/15 06:47:43;;;;;;;18.07;7.57;;;0.40;99.90;;;;;;8476649;27;20175;-68
2022/01/15 06:51:44;;;;;;;31.20;9.20;;;0.50;99.90;;;;;;8464750;27;20212;-68
2022/01/15 06:55:49;;;;;;;22.27;8.77;;;0.60;99.90;;;;;;8478022;27;20187;-68
2022/01/15 06:59:53;;;;;;;42.53;10.00;;;0.70;99.90;;;;;;8486168;27;20198;-68
2022/01/15 07:03:53;;;;;;;30.07;9.57;;;0.70;99.90;;;;;;8478058;27;20200;-68
2022/01/15 07:07:54;;;;;;;29.43;8.73;;;0.80;99.90;;;;;;8485339;27;20175;-68
2022/01/15 07:11:56;;;;;;;33.00;9.37;;;0.80;99.90;;;;;;8475639;27;20175;-70
2022/01/15 07:15:57;;;;;;;33.20;9.13;;;0.90;99.90;;;;;;8486509;27;20187;-71
2022/01/15 07:19:58;;;;;;;38.43;9.57;;;0.90;99.90;;;;;;8480970;27;20203;-71
2022/01/15 07:23:58;;;;;;;29.40;8.30;;;0.90;99.90;;;;;;8454001;27;20172;-71
2022/01/15 07:27:59;;;;;;;37.47;9.37;;;0.90;99.90;;;;;;8452560;28;20180;-70
2022/01/15 07:32:00;;;;;;;35.03;9.63;;;0.90;99.90;;;;;;8473264;27;20180;-70
2022/01/15 07:36:01;;;;;;;28.43;8.77;;;1.00;99.90;;;;;;8478601;27;20185;-70
2022/01/15 07:40:06;;;;;;;40.73;9.57;;;1.00;99.90;;;;;;8471470;27;20199;-70
2022/01/15 07:44:07;;;;;;;36.50;8.70;;;1.10;99.90;;;;;;8476526;27;20168;-70
2022/01/15 07:48:08;;;;;;;33.10;9.07;;;1.10;99.90;;;;;;8465719;27;20198;-69
2022/01/15 07:52:09;;;;;;;28.03;8.50;;;1.10;99.90;;;;;;8470180;28;20190;-69
2022/01/15 07:56:10;;;;;;;39.87;9.47;;;1.20;99.90;;;;;;8473935;27;20232;-70
2022/01/15 08:00:12;;;;;;;36.17;9.60;;;1.20;99.90;;;;;;8489295;27;20293;-70
2022/01/15 08:04:13;;;;;;;36.10;11.10;;;1.30;99.90;;;;;;8490563;27;20179;-70
2022/01/15 08:08:15;;;;;;;38.53;10.53;;;1.30;99.90;;;;;;8475256;27;20180;-69
2022/01/15 08:12:19;;;;;;;34.50;9.63;;;1.30;99.90;;;;;;8475161;27;20183;-70
2022/01/15 08:16:20;;;;;;;27.30;9.63;;;1.40;99.90;;;;;;8484300;27;20210;-69
2022/01/15 08:20:21;;;;;;;33.27;11.07;;;1.50;99.90;;;;;;8479420;27;20203;-70
2022/01/15 08:24:22;;;;;;;41.67;11.27;;;1.50;99.90;;;;;;8483795;27;20186;-69
2022/01/15 08:28:23;;;;;;;31.87;11.03;;;1.50;99.90;;;;;;8486585;27;20179;-69
2022/01/15 08:32:24;;;;;;;40.97;10.63;;;1.60;99.90;;;;;;8482995;27;20263;-69
2022/01/15 08:36:25;;;;;;;41.17;11.00;;;1.70;99.90;;;;;;8483911;27;20229;-68
2022/01/15 08:40:25;;;;;;;38.07;10.90;;;1.70;99.90;;;;;;8482136;27;20392;-69
2022/01/15 08:44:26;;;;;;;34.83;11.03;;;1.70;99.90;;;;;;8491760;27;20175;-69
2022/01/15 08:48:27;;;;;;;35.47;10.63;;;1.70;99.90;;;;;;8478333;27;20175;-69
2022/01/15 08:52:28;;;;;;;42.90;12.83;;;1.80;99.90;;;;;;8465939;27;20180;-69
2022/01/15 08:56:29;;;;;;;36.60;12.23;;;1.90;99.90;;;;;;8487708;27;20230;-69
2022/01/15 09:00:30;;;;;;;40.53;11.60;;;2.00;99.90;;;;;;8472233;27;20242;-69
2022/01/15 09:04:32;;;;;;;39.20;11.97;;;2.00;99.90;;;;;;8465847;27;20187;-69
2022/01/15 09:08:32;;;;;;;38.07;11.53;;;2.10;99.90;;;;;;8474368;27;20378;-69
2022/01/15 09:12:34;;;;;;;30.50;11.60;;;2.10;99.90;;;;;;8472729;27;20178;-69
2022/01/15 09:16:35;;;;;;;34.07;10.27;;;2.20;99.90;;;;;;8458325;28;20192;-69
2022/01/15 09:20:36;;;;;;;35.20;10.80;;;2.30;99.90;;;;;;8473583;27;20204;-71
2022/01/15 09:24:38;;;;;;;35.33;10.17;;;2.30;99.90;;;;;;8457614;28;20204;-69
2022/01/15 09:32:58;;;;;;;34.30;11.13;;;2.50;99.90;;;;;;8481005;27;20271;-69
2022/01/15 09:36:59;;;;;;;32.27;10.60;;;2.40;99.90;;;;;;8470658;27;20186;-69
2022/01/15 09:41:00;;;;;;;31.43;11.53;;;2.50;99.90;;;;;;8478856;27;20213;-69
2022/01/15 09:45:03;;;;;;;23.97;9.63;;;2.70;99.90;;;;;;8478523;27;20205;-69
2022/01/15 09:49:06;;;;;;;29.27;9.80;;;2.90;99.90;;;;;;8479651;27;20174;-69
2022/01/15 09:53:06;;;;;;;28.20;8.93;;;3.00;99.90;;;;;;8469434;27;20180;-69
2022/01/15 09:57:07;;;;;;;25.37;9.00;;;3.00;99.90;;;;;;8487857;27;20539;-69
2022/01/15 10:01:08;;;;;;;18.60;8.37;;;3.20;99.90;;;;;;8483983;27;20194;-70
2022/01/15 10:05:11;;;;;;;20.07;7.67;;;3.30;99.90;;;;;;8471303;27;20207;-69
2022/01/15 10:09:12;;;;;;;26.87;7.77;;;3.40;99.90;;;;;;8472350;27;20269;-69
2022/01/15 10:13:16;;;;;;;23.87;7.93;;;3.50;99.90;;;;;;8472143;27;20205;-69
2022/01/15 10:17:26;;;;;;;24.23;8.07;;;3.40;99.90;;;;;;8474153;27;20195;-68
2022/01/15 10:21:29;;;;;;;20.97;7.70;;;3.50;99.90;;;;;;8472439;27;20294;-67
2022/01/15 10:25:33;;;;;;;17.37;8.00;;;3.50;99.90;;;;;;8455071;28;20168;-72
2022/01/15 10:29:37;;;;;;;15.67;6.70;;;3.70;99.90;;;;;;8464405;27;20249;-68
2022/01/15 10:33:38;;;;;;;15.00;5.90;;;3.70;99.90;;;;;;8484719;27;20188;-68
2022/01/15 10:37:51;;;;;;;19.53;6.30;;;3.80;99.90;;;;;;8469363;27;20182;-68
2022/01/15 10:41:52;;;;;;;14.33;6.23;;;3.80;99.90;;;;;;8473493;27;20205;-68
2022/01/15 10:45:55;;;;;;;22.77;6.63;;;3.90;99.90;;;;;;8461800;27;20176;-67
2022/01/15 10:50:02;;;;;;;12.07;5.37;;;3.80;99.90;;;;;;8480281;27;20187;-68
2022/01/15 10:54:03;;;;;;;13.80;5.47;;;3.80;99.90;;;;;;8479916;27;20410;-68
2022/01/15 10:58:06;;;;;;;17.93;6.43;;;4.00;99.90;;;;;;8470613;27;20255;-67
2022/01/15 11:02:18;;;;;;;13.90;5.60;;;3.90;99.90;;;;;;8466860;27;20210;-68
2022/01/15 11:06:38;;;;;;;15.47;5.43;;;3.90;99.90;;;;;;8476775;27;20171;-67
2022/01/15 11:10:45;;;;;;;13.60;4.97;;;3.80;99.90;;;;;;8464255;27;20184;-67
2022/01/15 11:14:46;;;;;;;19.33;5.40;;;3.70;99.90;;;;;;8486591;27;20198;-67
2022/01/15 11:18:49;;;;;;;15.17;5.07;;;3.70;99.90;;;;;;8462922;27;20192;-67
2022/01/15 11:22:50;;;;;;;21.73;5.03;;;3.60;99.90;;;;;;8474663;27;20214;-68
2022/01/15 11:26:55;;;;;;;16.17;4.57;;;3.60;99.90;;;;;;8468352;27;20183;-67
2022/01/15 11:31:02;;;;;;;14.73;5.10;;;3.60;99.90;;;;;;8473747;27;20168;-68
2022/01/15 11:35:08;;;;;;;13.30;4.37;;;3.60;99.90;;;;;;8472735;27;20180;-67
2022/01/15 11:39:14;;;;;;;13.00;4.83;;;3.60;99.90;;;;;;8482292;27;20182;-66
2022/01/15 11:43:24;;;;;;;19.07;4.97;;;3.60;99.90;;;;;;8477874;27;20213;-72
2022/01/15 11:47:26;;;;;;;18.13;6.57;;;3.60;99.90;;;;;;8480110;27;20175;-68
2022/01/15 11:51:27;;;;;;;19.80;4.53;;;3.40;99.90;;;;;;8472742;28;20274;-67
2022/01/15 11:55:28;;;;;;;12.83;4.30;;;3.40;99.90;;;;;;8484640;28;20191;-67
2022/01/15 11:59:29;;;;;;;20.20;6.37;;;3.40;99.90;;;;;;8463762;28;20180;-66
2022/01/15 12:03:38;;;;;;;16.40;6.57;;;3.30;99.90;;;;;;8487073;27;20254;-65
2022/01/15 12:07:39;;;;;;;11.73;4.40;;;3.30;99.90;;;;;;8478209;28;20175;-67
2022/01/15 12:11:40;;;;;;;15.83;4.83;;;3.20;99.90;;;;;;8478875;28;20177;-67
2022/01/15 12:15:41;;;;;;;13.53;4.30;;;3.20;99.90;;;;;;8475405;28;20203;-66
2022/01/15 12:19:42;;;;;;;15.20;4.07;;;3.20;99.90;;;;;;8476604;27;20202;-67
2022/01/15 12:23:43;;;;;;;17.33;5.07;;;3.30;99.90;;;;;;8485257;27;20179;-67
2022/01/15 12:27:46;;;;;;;14.67;4.40;;;3.40;99.90;;;;;;8485234;27;20187;-68
2022/01/15 12:31:50;;;;;;;12.37;3.47;;;3.60;99.90;;;;;;8479713;28;20189;-66
2022/01/15 12:35:54;;;;;;;15.70;4.00;;;3.70;99.90;;;;;;8476975;27;20187;-67
2022/01/15 12:39:57;;;;;;;13.83;2.93;;;3.80;99.90;;;;;;8481781;27;20207;-67
2022/01/15 12:43:59;;;;;;;14.47;3.33;;;4.00;99.90;;;;;;8459389;28;20172;-65
2022/01/15 12:48:01;;;;;;;12.47;3.07;;;3.80;99.90;;;;;;8467977;27;20275;-66
2022/01/15 12:52:14;;;;;;;12.97;3.40;;;3.70;99.90;;;;;;8475483;27;20183;-66
2022/01/15 12:56:18;;;;;;;20.80;3.23;;;3.60;99.90;;;;;;8479963;27;20203;-67
2022/01/15 13:00:23;;;;;;;11.93;3.60;;;3.40;99.90;;;;;;8460940;27;20210;-67
2022/01/15 13:04:24;;;;;;;12.97;2.80;;;3.30;99.90;;;;;;8482000;27;20180;-66
2022/01/15 13:08:33;;;;;;;15.57;3.73;;;3.30;99.90;;;;;;8483227;27;20175;-66
2022/01/15 13:13:01;;;;;;;20.30;3.67;;;3.30;99.90;;;;;;8478413;27;20188;-66
2022/01/15 13:17:03;;;;;;;15.20;3.27;;;3.30;99.90;;;;;;8457336;28;20222;-66
2022/01/15 13:21:06;;;;;;;20.83;4.03;;;3.20;99.90;;;;;;8486689;27;20251;-66
2022/01/15 13:25:08;;;;;;;20.80;4.40;;;3.10;99.90;;;;;;8489866;27;20175;-66
2022/01/15 13:29:19;;;;;;;10.57;3.20;;;3.10;99.90;;;;;;8491550;27;20167;-66
2022/01/15 13:33:32;;;;;;;10.30;3.17;;;3.30;99.90;;;;;;8488467;27;20184;-66
2022/01/15 13:37:33;;;;;;;11.77;3.03;;;3.50;99.90;;;;;;8478003;27;20176;-67
2022/01/15 13:41:36;;;;;;;12.83;3.53;;;3.60;99.90;;;;;;8476464;27;20298;-66
2022/01/15 13:45:43;;;;;;;12.97;3.37;;;3.60;99.90;;;;;;8478167;27;20175;-66
2022/01/15 13:54:14;;;;;;;13.33;3.60;;;3.50;99.90;;;;;;8459986;27;20222;-66
2022/01/15 13:58:16;;;;;;;17.20;4.00;;;3.40;99.90;;;;;;8461933;27;20457;-66
2022/01/15 14:02:28;;;;;;;14.77;3.80;;;3.20;99.90;;;;;;8472131;27;20331;-66
2022/01/15 14:06:40;;;;;;;13.83;3.67;;;3.10;99.90;;;;;;8477646;27;20202;-66
2022/01/15 14:10:42;;;;;;;7.27;3.10;;;3.00;99.90;;;;;;8463927;27;20225;-66
2022/01/15 14:14:55;;;;;;;11.13;3.50;;;2.90;99.90;;;;;;8462273;27;20180;-66
2022/01/15 14:19:25;;;;;;;14.40;3.53;;;2.90;99.90;;;;;;8456278;27;20180;-67
2022/01/15 14:23:28;;;;;;;9.63;3.80;;;2.80;99.90;;;;;;8460784;27;20292;-66
2022/01/15 14:27:29;;;;;;;6.77;3.37;;;2.80;99.90;;;;;;8453786;28;20173;-66
2022/01/15 14:31:30;;;;;;;11.40;3.63;;;2.70;99.90;;;;;;8477810;27;20191;-66
2022/01/15 14:35:31;;;;;;;7.80;3.47;;;2.60;99.90;;;;;;8483961;27;20186;-66
2022/01/15 14:39:32;;;;;;;12.50;3.60;;;2.60;99.90;;;;;;8470418;27;20179;-66
2022/01/15 14:43:33;;;;;;;13.33;3.83;;;2.50;99.90;;;;;;8459553;27;20190;-66
2022/01/15 14:47:34;;;;;;;9.83;3.50;;;2.60;99.90;;;;;;8466903;27;20183;-66
2022/01/15 14:51:38;;;;;;;13.20;4.27;;;2.60;99.90;;;;;;8479805;27;20180;-66
2022/01/15 14:55:39;;;;;;;8.70;3.63;;;2.60;99.90;;;;;;8473280;27;20230;-66
2022/01/15 14:59:40;;;;;;;11.50;3.80;;;2.50;99.90;;;;;;8481486;27;20190;-65
2022/01/15 15:03:41;;;;;;;13.80;3.53;;;2.50;99.90;;;;;;8468767;27;20186;-66
2022/01/15 15:07:43;;;;;;;9.07;3.40;;;2.50;99.90;;;;;;8488648;27;20171;-66
2022/01/15 15:11:44;;;;;;;11.70;4.03;;;2.40;99.90;;;;;;8473634;27;20211;-66
2022/01/15 15:15:45;;;;;;;16.03;4.20;;;2.40;99.90;;;;;;8486729;27;20252;-66
2022/01/15 15:19:47;;;;;;;6.80;3.50;;;2.30;99.90;;;;;;8481055;27;20222;-66
2022/01/15 15:23:48;;;;;;;10.60;4.17;;;2.30;99.90;;;;;;8448404;27;20233;-66
2022/01/15 15:27:49;;;;;;;9.57;3.10;;;2.30;99.90;;;;;;8454509;28;20171;-66
2022/01/15 15:31:50;;;;;;;12.47;4.40;;;2.30;99.90;;;;;;8475772;27;20181;-67
2022/01/15 15:35:51;;;;;;;11.37;3.67;;;2.30;99.90;;;;;;8485728;27;20183;-66
2022/01/15 15:39:52;;;;;;;11.40;4.27;;;2.20;99.90;;;;;;8470963;27;20207;-66
2022/01/15 15:43:54;;;;;;;7.70;3.07;;;2.10;99.90;;;;;;8456206;27;20179;-66
2022/01/15 15:47:55;;;;;;;12.33;3.23;;;2.10;99.90;;;;;;8452966;28;20498;-65
2022/01/15 15:51:55;;;;;;;12.97;3.47;;;2.00;99.90;;;;;;8478998;28;20179;-66
2022/01/15 15:55:56;;;;;;;9.70;3.23;;;1.90;99.90;;;;;;8484462;28;20202;-65
2022/01/15 15:59:57;;;;;;;10.53;3.17;;;1.80;99.90;;;;;;8485907;28;20221;-65
2022/01/15 16:03:58;;;;;;;13.00;3.47;;;1.70;99.90;;;;;;8471133;27;20183;-65
2022/01/15 16:07:59;;;;;;;12.13;3.67;;;1.70;99.90;;;;;;8477265;27;20215;-64
2022/01/15 16:12:00;;;;;;;23.10;4.17;;;1.60;99.90;;;;;;8470547;27;20171;-66
2022/01/15 16:16:01;;;;;;;14.80;3.90;;;1.60;99.90;;;;;;8453563;28;20469;-64
2022/01/15 16:20:04;;;;;;;7.90;2.93;;;1.50;99.90;;;;;;8475727;27;20208;-66
2022/01/15 16:24:08;;;;;;;12.13;3.47;;;1.40;99.90;;;;;;8491058;27;20179;-67
2022/01/15 16:28:09;;;;;;;6.43;3.00;;;1.40;99.90;;;;;;8489466;27;20224;-65
2022/01/15 16:32:10;;;;;;;11.30;3.40;;;1.30;99.90;;;;;;8483543;27;20183;-66
2022/01/15 16:36:11;;;;;;;16.30;3.87;;;1.20;99.90;;;;;;8493270;27;20187;-69
2022/01/15 16:40:13;;;;;;;13.20;3.70;;;1.10;99.90;;;;;;8484068;27;20203;-65
2022/01/15 16:44:14;;;;;;;9.27;3.13;;;1.10;99.90;;;;;;8488540;27;20172;-64
2022/01/15 16:48:15;;;;;;;8.40;3.43;;;1.00;99.90;;;;;;8492860;27;20266;-65
2022/01/15 16:52:16;;;;;;;6.43;2.67;;;0.90;99.90;;;;;;8486495;27;20183;-64
2022/01/15 16:56:17;;;;;;;7.20;3.70;;;0.90;99.90;;;;;;8492419;27;20191;-65
2022/01/15 17:00:18;;;;;;;10.20;3.43;;;0.90;99.90;;;;;;8472319;27;20203;-65
2022/01/15 17:04:19;;;;;;;9.33;3.53;;;0.90;99.90;;;;;;8465801;27;20179;-65
2022/01/15 17:08:20;;;;;;;7.97;3.20;;;0.80;99.90;;;;;;8480905;27;20191;-65
2022/01/15 17:12:20;;;;;;;11.00;3.67;;;0.80;99.90;;;;;;8474538;27;20191;-65
2022/01/15 17:16:21;;;;;;;8.00;2.90;;;0.80;99.90;;;;;;8458785;27;20200;-65
2022/01/15 17:20:22;;;;;;;13.33;3.43;;;0.80;99.90;;;;;;8482188;27;20207;-66
2022/01/15 17:24:23;;;;;;;8.47;3.90;;;0.90;99.90;;;;;;8491174;27;20167;-65
2022/01/15 17:28:24;;;;;;;12.00;5.10;;;0.90;99.90;;;;;;8490196;27;20183;-65
2022/01/15 17:32:25;;;;;;;7.87;3.17;;;0.90;99.90;;;;;;8481321;27;20219;-65
2022/01/15 17:36:27;;;;;;;9.77;3.53;;;1.00;99.90;;;;;;8472632;27;20240;-66
2022/01/15 17:40:28;;;;;;;7.43;3.27;;;0.90;99.90;;;;;;8485195;27;20225;-66
2022/01/15 17:44:29;;;;;;;9.40;3.30;;;0.90;99.90;;;;;;8456368;28;20180;-65
2022/01/15 17:48:30;;;;;;;10.10;3.53;;;0.90;99.90;;;;;;8463718;27;20184;-65
2022/01/15 17:52:31;;;;;;;12.57;3.13;;;0.80;99.90;;;;;;8474107;27;20191;-67
2022/01/15 17:56:32;;;;;;;7.87;3.17;;;0.80;99.90;;;;;;8484117;27;20222;-65
2022/01/15 18:00:33;;;;;;;7.53;3.57;;;0.80;99.90;;;;;;8470802;27;20207;-65
2022/01/15 18:04:33;;;;;;;6.13;3.20;;;0.80;99.90;;;;;;8472331;27;20202;-65
2022/01/15 18:08:35;;;;;;;6.37;3.23;;;0.70;99.90;;;;;;8472896;27;20180;-64
2022/01/15 18:12:36;;;;;;;8.77;2.83;;;0.70;99.90;;;;;;8490434;27;20225;-66
2022/01/15 18:16:44;;;;;;;7.67;3.17;;;0.60;99.90;;;;;;8490442;27;20419;-65
2022/01/15 18:20:45;;;;;;;9.20;3.43;;;0.60;99.90;;;;;;8481445;27;20519;-64
2022/01/15 18:24:47;;;;;;;15.73;6.17;;;0.50;99.90;;;;;;8488292;27;20187;-64
2022/01/15 18:28:51;;;;;;;14.97;6.87;;;0.40;99.90;;;;;;8488781;27;20262;-65
2022/01/15 18:32:54;;;;;;;12.50;5.53;;;0.30;99.90;;;;;;8472670;27;20225;-65
2022/01/15 18:36:55;;;;;;;8.57;4.33;;;0.30;99.90;;;;;;8488358;27;20207;-66
2022/01/15 18:40:56;;;;;;;9.33;4.20;;;0.30;99.90;;;;;;8478708;27;20211;-65
2022/01/15 18:44:57;;;;;;;6.07;3.60;;;0.30;99.90;;;;;;8464595;27;20221;-65
2022/01/15 18:48:58;;;;;;;12.50;4.83;;;0.30;99.90;;;;;;8473278;27;20183;-64
2022/01/15 18:52:58;;;;;;;9.50;3.97;;;0.30;99.90;;;;;;8475791;27;20180;-64
2022/01/15 18:56:59;;;;;;;7.73;4.03;;;0.30;99.90;;;;;;8479839;27;20195;-65
2022/01/15 19:01:00;;;;;;;10.53;4.53;;;0.30;99.90;;;;;;8478898;27;20204;-64
2022/01/15 19:05:01;;;;;;;11.70;4.00;;;0.30;99.90;;;;;;8484647;27;20223;-65
2022/01/15 19:09:03;;;;;;;15.77;6.00;;;0.30;99.90;;;;;;8486328;27;20226;-72
2022/01/15 19:13:03;;;;;;;14.03;6.00;;;0.40;99.90;;;;;;8472725;27;20180;-66
2022/01/15 19:17:04;;;;;;;13.37;5.60;;;0.40;99.90;;;;;;8480251;27;20208;-66
2022/01/15 19:21:06;;;;;;;11.83;5.60;;;0.50;99.90;;;;;;8479772;27;20253;-67
2022/01/15 19:25:08;;;;;;;14.13;4.83;;;0.50;99.90;;;;;;8471274;27;20186;-66
2022/01/15 19:29:10;;;;;;;15.10;7.03;;;0.50;99.90;;;;;;8473447;27;20183;-64
2022/01/15 19:33:11;;;;;;;14.63;8.10;;;0.50;99.90;;;;;;8469636;27;20231;-67
2022/01/15 19:37:12;;;;;;;8.27;4.90;;;0.50;99.90;;;;;;8479404;27;20183;-65
2022/01/15 19:41:13;;;;;;;14.17;5.20;;;0.50;99.90;;;;;;8475071;27;20275;-65
2022/01/15 19:45:18;;;;;;;19.40;6.43;;;0.60;99.90;;;;;;8486047;28;20183;-66
2022/01/15 19:49:19;;;;;;;11.20;4.00;;;0.60;99.90;;;;;;8483768;27;20260;-66
2022/01/15 19:53:22;;;;;;;16.60;6.00;;;0.70;99.90;;;;;;8459590;27;20179;-64
2022/01/15 19:57:23;;;;;;;13.60;5.73;;;0.70;99.90;;;;;;8467559;27;20335;-65
2022/01/15 20:01:26;;;;;;;11.57;4.67;;;0.70;99.90;;;;;;8492660;27;20203;-65
2022/01/15 20:05:27;;;;;;;8.00;3.77;;;0.70;99.90;;;;;;8492731;27;20222;-65
2022/01/15 20:09:29;;;;;;;14.33;4.87;;;0.70;99.90;;;;;;8484237;27;20175;-66
2022/01/15 20:13:30;;;;;;;9.53;4.53;;;0.60;99.90;;;;;;8485033;27;20179;-64
2022/01/15 20:17:31;;;;;;;7.67;3.93;;;0.60;99.90;;;;;;8492648;27;20210;-66
2022/01/15 20:21:32;;;;;;;10.47;4.00;;;0.60;99.90;;;;;;8484532;27;20205;-72
2022/01/15 20:25:34;;;;;;;14.30;6.13;;;0.50;99.90;;;;;;8471889;27;20191;-65
2022/01/15 20:29:35;;;;;;;9.03;5.00;;;0.40;99.90;;;;;;8481694;27;20183;-65
2022/01/15 20:33:37;;;;;;;11.67;5.00;;;0.30;99.90;;;;;;8485528;27;20179;-64
2022/01/15 20:37:40;;;;;;;10.40;4.73;;;0.20;99.90;;;;;;8488446;27;20175;-65
2022/01/15 20:41:41;;;;;;;9.30;4.20;;;0.20;99.90;;;;;;8468051;27;20255;-65
2022/01/15 20:45:43;;;;;;;9.37;4.27;;;0.20;99.90;;;;;;8478809;27;20179;-66
2022/01/15 20:49:44;;;;;;;8.27;4.57;;;0.20;99.90;;;;;;8478182;27;20172;-65
2022/01/15 20:53:45;;;;;;;11.67;5.87;;;0.20;99.90;;;;;;8483396;27;20193;-64
2022/01/15 20:57:48;;;;;;;12.23;4.37;;;0.10;99.90;;;;;;8476575;27;20260;-64
2022/01/15 21:01:49;;;;;;;9.20;4.33;;;0.10;99.90;;;;;;8484745;27;20243;-64
2022/01/15 21:05:50;;;;;;;10.40;4.70;;;0.10;99.90;;;;;;8473553;27;20195;-65
2022/01/15 21:09:52;;;;;;;7.83;4.30;;;0.00;99.90;;;;;;8476667;27;20180;-64
2022/01/15 21:13:53;;;;;;;7.10;3.73;;;0.00;99.90;;;;;;8480445;27;20176;-64
2022/01/15 21:17:54;;;;;;;8.47;3.53;;;0.00;99.90;;;;;;8477931;27;20200;-64
2022/01/15 21:21:55;;;;;;;11.07;4.50;;;-0.10;99.90;;;;;;8479248;27;20195;-64
2022/01/15 21:26:03;;;;;;;13.43;4.93;;;-0.10;99.90;;;;;;8476400;27;20175;-64
2022/01/15 21:30:06;;;;;;;9.13;4.30;;;-0.10;99.90;;;;;;8474625;27;20175;-65